createdAt,value
2018-06-05T00:01:05.498Z,94912.48
2018-06-05T00:03:35.504Z,94911.65
2018-06-05T00:06:05.545Z,94911.41
2018-06-05T00:08:35.590Z,94907.69
2018-06-05T00:11:05.634Z,94903.55
2018-06-05T00:13:35.656Z,94909.03
2018-06-05T00:16:05.709Z,94901.97
2018-06-05T00:18:35.700Z,94911.45
2018-06-05T00:21:05.773Z,94907.37
2018-06-05T00:23:35.808Z,94907.87
2018-06-05T00:26:05.897Z,94909.61
2018-06-05T00:28:35.881Z,94907.62
2018-06-05T00:31:05.885Z,94907.92
2018-06-05T00:33:35.882Z,94907.42
2018-06-05T00:36:05.953Z,94910.42
2018-06-05T00:38:35.966Z,94912.94
2018-06-05T00:41:06.009Z,94917.49
2018-06-05T00:43:35.941Z,94911.86
2018-06-05T00:46:05.947Z,94916.25
2018-06-05T00:48:35.914Z,94917.87
2018-06-05T00:51:21.294Z,94923.34
2018-06-05T00:53:51.330Z,94919.68
2018-06-05T00:56:21.334Z,94920.02
2018-06-05T00:58:51.352Z,94921.91
2018-06-05T01:01:21.398Z,94918.52
2018-06-05T01:03:51.379Z,94919.39
2018-06-05T01:06:21.441Z,94917.78
2018-06-05T01:08:51.497Z,94925.16
2018-06-05T01:11:21.503Z,94927.73
2018-06-05T01:13:51.506Z,94927.13
2018-06-05T01:16:21.526Z,94922.00
2018-06-05T01:18:51.527Z,94923.89
2018-06-05T01:21:21.533Z,94930.36
2018-06-05T01:23:51.536Z,94934.38
2018-06-05T01:26:21.569Z,94934.09
2018-06-05T01:28:51.564Z,94937.88
2018-06-05T01:31:21.594Z,94931.94
2018-06-05T01:33:51.579Z,94930.63
2018-06-05T01:36:21.617Z,94938.95
2018-06-05T01:38:51.606Z,94936.02
2018-06-05T01:41:21.620Z,94941.25
2018-06-05T01:43:51.620Z,94941.02
2018-06-05T01:46:21.611Z,94943.77
2018-06-05T01:48:51.622Z,94937.70
2018-06-05T01:51:21.604Z,94942.62
2018-06-05T01:53:51.658Z,94943.16
2018-06-05T01:56:21.648Z,94934.06
2018-06-05T01:58:51.635Z,94940.20
2018-06-05T02:01:21.234Z,94941.30
2018-06-05T02:03:51.240Z,94937.59
2018-06-05T02:06:21.199Z,94937.89
2018-06-05T02:08:51.184Z,94939.86
2018-06-05T02:11:21.135Z,94936.25
2018-06-05T02:13:51.143Z,94931.36
2018-06-05T02:16:21.141Z,94933.82
2018-06-05T02:18:51.142Z,94932.83
2018-06-05T02:21:21.138Z,94932.64
2018-06-05T02:23:51.160Z,94926.83
2018-06-05T02:26:21.169Z,94927.13
2018-06-05T02:28:51.204Z,94933.08
2018-06-05T02:31:21.191Z,94928.26
2018-06-05T02:33:51.325Z,94928.83
2018-06-05T02:36:20.981Z,94926.99
2018-06-05T02:38:50.993Z,94923.52
2018-06-05T02:41:21.006Z,94928.15
2018-06-05T02:43:51.939Z,94928.64
2018-06-05T02:46:22.610Z,94931.91
2018-06-05T02:48:52.640Z,94931.70
2018-06-05T02:51:22.637Z,94931.97
2018-06-05T02:53:52.762Z,94930.67
2018-06-05T02:56:22.772Z,94933.60
2018-06-05T02:58:52.787Z,94934.41
2018-06-05T03:01:22.835Z,94940.09
2018-06-05T03:03:52.827Z,94930.48
2018-06-05T03:06:22.795Z,94938.32
2018-06-05T03:08:52.836Z,94945.37
2018-06-05T03:11:22.879Z,94938.69
2018-06-05T03:13:52.914Z,94944.83
2018-06-05T03:16:22.887Z,94946.71
2018-06-05T03:18:52.933Z,94949.45
2018-06-05T03:21:22.922Z,94948.08
2018-06-05T03:23:53.006Z,94946.20
2018-06-05T03:26:22.990Z,94947.55
2018-06-05T03:28:53.020Z,94947.27
2018-06-05T03:31:23.050Z,94945.70
2018-06-05T03:33:53.070Z,94949.54
2018-06-05T03:36:23.084Z,94947.91
2018-06-05T03:38:53.134Z,94950.59
2018-06-05T03:41:23.192Z,94952.16
2018-06-05T03:43:53.226Z,94949.72
2018-06-05T03:46:23.255Z,94950.80
2018-06-05T03:48:53.636Z,94954.27
2018-06-05T03:51:23.648Z,94954.00
2018-06-05T03:53:53.725Z,94954.52
2018-06-05T03:56:23.348Z,94955.62
2018-06-05T03:58:53.398Z,94958.60
2018-06-05T04:01:23.385Z,94957.52
2018-06-05T04:03:53.442Z,94959.14
2018-06-05T04:06:23.486Z,94961.00
2018-06-05T04:08:53.556Z,94958.03
2018-06-05T04:11:23.614Z,94958.03
2018-06-05T04:13:53.617Z,94957.28
2018-06-05T04:16:23.647Z,94962.39
2018-06-05T04:18:53.594Z,94962.14
2018-06-05T04:21:23.612Z,94954.63
2018-06-05T04:23:53.581Z,94964.88
2018-06-05T04:26:23.563Z,94960.05
2018-06-05T04:28:53.526Z,94970.79
2018-06-05T04:31:23.528Z,94972.67
2018-06-05T04:33:53.502Z,94972.34
2018-06-05T04:36:23.553Z,94973.64
2018-06-05T04:38:53.542Z,94974.09
2018-06-05T04:41:23.535Z,94970.53
2018-06-05T04:43:53.517Z,94976.67
2018-06-05T04:46:23.540Z,94973.44
2018-06-05T04:48:53.152Z,94977.41
2018-06-05T04:51:23.183Z,94978.13
2018-06-05T04:53:53.184Z,94983.61
2018-06-05T04:56:23.160Z,94979.08
2018-06-05T04:58:53.145Z,94981.63
2018-06-05T05:01:23.256Z,94972.92
2018-06-05T05:03:53.303Z,94983.05
2018-06-05T05:06:23.363Z,94979.21
2018-06-05T05:08:53.403Z,94983.97
2018-06-05T05:11:23.469Z,94984.02
2018-06-05T05:13:53.488Z,94988.41
2018-06-05T05:16:23.557Z,94992.95
2018-06-05T05:18:53.618Z,94993.48
2018-06-05T05:21:23.660Z,94991.71
2018-06-05T05:23:53.672Z,94993.00
2018-06-05T05:26:23.717Z,94994.65
2018-06-05T05:28:53.748Z,95001.38
2018-06-05T05:31:23.808Z,94991.22
2018-06-05T05:33:53.395Z,94998.12
2018-06-05T05:36:23.497Z,94996.05
2018-06-05T05:38:53.526Z,94995.63
2018-06-05T05:41:23.542Z,94996.78
2018-06-05T05:43:53.509Z,95000.30
2018-06-05T05:46:23.556Z,94998.20
2018-06-05T05:48:53.581Z,95004.48
2018-06-05T05:51:23.639Z,95002.92
2018-06-05T05:53:53.706Z,95009.45
2018-06-05T05:56:23.761Z,95005.90
2018-06-05T05:58:53.771Z,95006.32
2018-06-05T06:01:23.825Z,94998.58
2018-06-05T06:03:54.070Z,95002.88
2018-06-05T06:06:24.137Z,94999.45
2018-06-05T06:08:54.183Z,94998.00
2018-06-05T06:11:24.225Z,95003.19
2018-06-05T06:13:54.907Z,95001.44
2018-06-05T06:16:24.960Z,94996.11
2018-06-05T06:18:54.987Z,94992.13
2018-06-05T06:21:25.097Z,94999.32
2018-06-05T06:23:55.197Z,94996.20
2018-06-05T06:26:25.237Z,94999.72
2018-06-05T06:28:55.290Z,94994.48
2018-06-05T06:31:25.346Z,94998.84
2018-06-05T06:33:55.386Z,95003.98
2018-06-05T06:36:25.388Z,94999.98
2018-06-05T06:38:55.450Z,95000.67
2018-06-05T06:41:25.489Z,95002.03
2018-06-05T06:43:55.524Z,95009.34
2018-06-05T06:46:25.521Z,95009.49
2018-06-05T06:48:55.659Z,95008.98
2018-06-05T06:51:25.599Z,95020.31
2018-06-05T06:53:55.672Z,95013.45
2018-06-05T06:56:25.716Z,95017.44
2018-06-05T06:58:55.766Z,95005.06
2018-06-05T07:01:25.780Z,95011.84
2018-06-05T07:03:55.811Z,95010.21
2018-06-05T07:06:25.849Z,95009.20
2018-06-05T07:08:55.902Z,95006.23
2018-06-05T07:11:25.944Z,95010.86
2018-06-05T07:13:55.944Z,95008.06
2018-06-05T07:16:25.938Z,95005.40
2018-06-05T07:18:55.968Z,95013.36
2018-06-05T07:21:25.960Z,95009.17
2018-06-05T07:23:56.005Z,95003.18
2018-06-05T07:26:26.604Z,95003.82
2018-06-05T07:28:56.608Z,94998.95
2018-06-05T07:31:26.652Z,95003.31
2018-06-05T07:33:56.734Z,95007.98
2018-06-05T07:36:26.746Z,95008.75
2018-06-05T07:38:56.726Z,95003.11
2018-06-05T07:41:26.679Z,95007.16
2018-06-05T07:43:56.675Z,95006.98
2018-06-05T07:46:26.639Z,95010.89
2018-06-05T07:48:56.617Z,95011.36
2018-06-05T07:51:26.540Z,95012.77
2018-06-05T07:53:56.559Z,95010.05
2018-06-05T07:56:26.596Z,95013.95
2018-06-05T07:58:56.652Z,95021.22
2018-06-05T08:01:26.678Z,95013.99
2018-06-05T08:03:56.723Z,95015.36
2018-06-05T08:06:26.755Z,95023.50
2018-06-05T08:08:56.840Z,95021.94
2018-06-05T08:11:26.832Z,95021.50
2018-06-05T08:13:56.843Z,95019.77
2018-06-05T08:16:26.882Z,95021.88
2018-06-05T08:18:56.894Z,95020.24
2018-06-05T08:21:26.886Z,95022.66
2018-06-05T08:23:56.909Z,95026.38
2018-06-05T08:26:52.178Z,95030.47
2018-06-05T08:29:22.731Z,95026.06
2018-06-05T08:31:53.384Z,95026.29
2018-06-05T08:34:23.454Z,95029.66
2018-06-05T08:36:53.490Z,95030.74
2018-06-05T08:39:23.090Z,95036.03
2018-06-05T08:41:53.137Z,95034.83
2018-06-05T08:44:23.105Z,95036.78
2018-06-05T08:46:53.058Z,95032.23
2018-06-05T08:49:23.074Z,95026.36
2018-06-05T08:51:53.007Z,95030.85
2018-06-05T08:54:23.007Z,95030.10
2018-06-05T08:56:52.983Z,95030.43
2018-06-05T08:59:23.010Z,95026.95
2018-06-05T09:01:53.054Z,95034.45
2018-06-05T09:04:23.059Z,95032.13
2018-06-05T09:06:53.016Z,95029.69
2018-06-05T09:09:23.039Z,95036.01
2018-06-05T09:11:53.010Z,95028.38
2018-06-05T09:14:22.987Z,95031.26
2018-06-05T09:16:52.926Z,95031.11
2018-06-05T09:19:22.919Z,95028.00
2018-06-05T09:21:52.887Z,95031.19
2018-06-05T09:24:22.858Z,95026.13
2018-06-05T09:26:52.860Z,95029.31
2018-06-05T09:29:22.806Z,95027.17
2018-06-05T09:31:52.773Z,95030.72
2018-06-05T09:34:22.757Z,95040.63
2018-06-05T09:36:52.815Z,95026.88
2018-06-05T09:39:22.844Z,95031.69
2018-06-05T09:41:52.848Z,95032.80
2018-06-05T09:44:22.844Z,95029.39
2018-06-05T09:46:53.010Z,95031.80
2018-06-05T09:49:22.993Z,95032.69
2018-06-05T09:51:52.975Z,95033.02
2018-06-05T09:54:22.987Z,95025.70
2018-06-05T09:56:53.022Z,95022.27
2018-06-05T09:59:23.060Z,95025.59
2018-06-05T10:01:53.117Z,95032.10
2018-06-05T10:04:23.158Z,95022.52
2018-06-05T10:06:53.209Z,95024.59
2018-06-05T10:09:23.223Z,95021.81
2018-06-05T10:11:53.361Z,95020.22
2018-06-05T10:14:23.412Z,95025.25
2018-06-05T10:16:53.459Z,95019.03
2018-06-05T10:19:23.474Z,95013.50
2018-06-05T10:21:53.506Z,95013.30
2018-06-05T10:24:23.581Z,95010.24
2018-06-05T10:26:53.623Z,95012.53
2018-06-05T10:29:23.662Z,95014.34
2018-06-05T10:31:54.078Z,95017.02
2018-06-05T10:34:24.077Z,95008.17
2018-06-05T10:36:54.123Z,95014.09
2018-06-05T10:39:24.103Z,95011.91
2018-06-05T10:41:54.134Z,95013.66
2018-06-05T10:44:24.084Z,95019.83
2018-06-05T10:46:54.083Z,95015.55
2018-06-05T10:49:24.046Z,95019.03
2018-06-05T10:51:54.052Z,95014.09
2018-06-05T10:54:24.120Z,95010.42
2018-06-05T10:56:54.150Z,95011.34
2018-06-05T10:59:24.080Z,95009.17
2018-06-05T11:01:54.097Z,95020.59
2018-06-05T11:04:24.019Z,95012.17
2018-06-05T11:06:53.938Z,95014.67
2018-06-05T11:09:23.868Z,95007.97
2018-06-05T11:11:53.880Z,95012.88
2018-06-05T11:14:23.819Z,95011.38
2018-06-05T11:16:53.746Z,95014.19
2018-06-05T11:19:23.680Z,95004.72
2018-06-05T11:21:53.656Z,94998.05
2018-06-05T11:24:23.912Z,95003.48
2018-06-05T11:26:53.902Z,94993.43
2018-06-05T11:29:23.848Z,95002.60
2018-06-05T11:31:53.818Z,95005.73
2018-06-05T11:34:23.787Z,95004.54
2018-06-05T11:36:53.802Z,94993.45
2018-06-05T11:39:23.707Z,94991.59
2018-06-05T11:41:53.696Z,94986.91
2018-06-05T11:44:23.664Z,94991.85
2018-06-05T11:46:53.915Z,94991.73
2018-06-05T11:49:23.936Z,94985.23
2018-06-05T11:51:54.015Z,94986.58
2018-06-05T11:54:24.022Z,94979.06
2018-06-05T11:56:53.995Z,94980.00
2018-06-05T11:59:24.027Z,94985.24
2018-06-05T12:01:54.143Z,94982.58
2018-06-05T12:04:24.109Z,94974.34
2018-06-05T12:06:54.173Z,94977.52
2018-06-05T12:09:24.114Z,94977.90
2018-06-05T12:11:53.667Z,94956.10
2018-06-05T12:14:23.735Z,94979.95
2018-06-05T12:16:53.764Z,94977.10
2018-06-05T12:19:23.834Z,94973.47
2018-06-05T12:21:53.806Z,94972.97
2018-06-05T12:24:23.768Z,94972.97
2018-06-05T12:26:53.867Z,94970.98
2018-06-05T12:29:23.904Z,94968.13
2018-06-05T12:31:53.906Z,94969.20
2018-06-05T12:34:23.937Z,94961.30
2018-06-05T12:36:53.949Z,94964.84
2018-06-05T12:39:23.963Z,94952.28
2018-06-05T12:41:53.925Z,94953.05
2018-06-05T12:44:23.923Z,94954.15
2018-06-05T12:46:53.899Z,94949.58
2018-06-05T12:49:23.869Z,94946.27
2018-06-05T12:51:53.801Z,94935.57
2018-06-05T12:54:23.809Z,94929.27
2018-06-05T12:56:53.766Z,94931.61
2018-06-05T12:59:23.796Z,94927.06
2018-06-05T13:01:53.717Z,94932.98
2018-06-05T13:04:23.706Z,94931.45
2018-06-05T13:06:53.650Z,94924.14
2018-06-05T13:09:23.663Z,94926.41
2018-06-05T13:11:53.762Z,94922.73
2018-06-05T13:14:23.753Z,94921.08
2018-06-05T13:16:53.747Z,94919.70
2018-06-05T13:19:23.737Z,94922.53
2018-06-05T13:21:53.728Z,94924.59
2018-06-05T13:24:23.766Z,94922.58
2018-06-05T13:26:58.113Z,94913.36
2018-06-05T13:29:28.127Z,94916.14
2018-06-05T13:31:58.103Z,94915.02
2018-06-05T13:34:28.276Z,94918.66
2018-06-05T13:36:58.239Z,94912.59
2018-06-05T13:39:28.281Z,94909.92
2018-06-05T13:41:58.283Z,94912.92
2018-06-05T13:44:28.254Z,94907.50
2018-06-05T13:46:58.203Z,94903.47
2018-06-05T13:49:28.216Z,94906.94
2018-06-05T13:51:58.165Z,94905.62
2018-06-05T13:54:28.180Z,94902.02
2018-06-05T13:56:58.105Z,94913.58
2018-06-05T13:59:28.075Z,94906.12
2018-06-05T14:01:58.016Z,94904.72
2018-06-05T14:04:28.001Z,94902.05
2018-06-05T14:06:57.961Z,94895.05
2018-06-05T14:09:27.911Z,94895.34
2018-06-05T14:11:57.903Z,94891.72
2018-06-05T14:14:27.871Z,94893.91
2018-06-05T14:16:57.887Z,94893.97
2018-06-05T14:19:28.118Z,94886.16
2018-06-05T14:21:58.170Z,94891.33
2018-06-05T14:24:28.180Z,94885.22
2018-06-05T14:26:58.202Z,94887.22
2018-06-05T14:29:28.232Z,94889.25
2018-06-05T14:31:58.218Z,94893.98
2018-06-05T14:34:28.209Z,94893.52
2018-06-05T14:36:58.186Z,94882.71
2018-06-05T14:39:28.121Z,94893.38
2018-06-05T14:41:58.089Z,94885.97
2018-06-05T14:44:28.054Z,94888.73
2018-06-05T14:46:58.009Z,94879.59
2018-06-05T14:49:28.032Z,94877.56
2018-06-05T14:51:57.995Z,94879.94
2018-06-05T14:54:27.998Z,94875.97
2018-06-05T14:56:57.970Z,94877.85
2018-06-05T14:59:27.978Z,94877.42
2018-06-05T15:01:57.989Z,94880.36
2018-06-05T15:04:28.077Z,94874.92
2018-06-05T15:06:58.164Z,94873.59
2018-06-05T15:09:28.153Z,94876.20
2018-06-05T15:11:58.174Z,94879.28
2018-06-05T15:14:28.171Z,94886.42
2018-06-05T15:16:58.196Z,94883.91
2018-06-05T15:19:28.152Z,94883.20
2018-06-05T15:21:58.434Z,94882.79
2018-06-05T15:24:28.381Z,94874.80
2018-06-05T15:26:58.349Z,94871.36
2018-06-05T15:29:28.345Z,94871.00
2018-06-05T15:31:58.347Z,94870.25
2018-06-05T15:34:28.288Z,94876.75
2018-06-05T15:36:58.301Z,94875.96
2018-06-05T15:39:28.253Z,94883.19
2018-06-05T15:41:58.332Z,94881.45
2018-06-05T15:44:28.286Z,94877.99
2018-06-05T15:46:58.270Z,94880.27
2018-06-05T15:49:28.203Z,94878.83
2018-06-05T15:51:57.816Z,94877.86
2018-06-05T15:54:27.772Z,94876.56
2018-06-05T15:56:57.750Z,94873.16
2018-06-05T15:59:27.722Z,94870.20
2018-06-05T16:01:57.714Z,94873.52
2018-06-05T16:04:27.697Z,94866.66
2018-06-05T16:06:57.288Z,94875.16
2018-06-05T16:09:27.292Z,94864.97
2018-06-05T16:11:57.349Z,94872.08
2018-06-05T16:14:27.356Z,94862.00
2018-06-05T16:16:57.456Z,94812.28
2018-06-05T16:19:27.522Z,94858.55
2018-06-05T16:21:57.505Z,94862.06
2018-06-05T16:24:27.506Z,94857.75
2018-06-05T16:26:57.631Z,94855.34
2018-06-05T16:29:27.683Z,94859.39
2018-06-05T16:31:57.863Z,94858.75
2018-06-05T16:34:28.462Z,94858.22
2018-06-05T16:36:58.114Z,94850.88
2018-06-05T16:39:28.174Z,94854.22
2018-06-05T16:41:58.293Z,94849.16
2018-06-05T16:44:28.313Z,94850.31
2018-06-05T16:46:58.264Z,94850.27
2018-06-05T16:49:28.284Z,94847.47
2018-06-05T16:51:58.268Z,94850.86
2018-06-05T16:54:28.301Z,94850.38
2018-06-05T16:56:58.277Z,94846.70
2018-06-05T16:59:28.438Z,94846.17
2018-06-05T17:01:58.924Z,94844.80
2018-06-05T17:04:29.097Z,94841.98
2018-06-05T17:06:59.082Z,94844.18
2018-06-05T17:09:29.110Z,94844.89
2018-06-05T17:11:59.194Z,94840.98
2018-06-05T17:14:29.280Z,94844.59
2018-06-05T17:16:59.414Z,94839.38
2018-06-05T17:19:29.531Z,94840.55
2018-06-05T17:21:59.499Z,94846.20
2018-06-05T17:24:29.557Z,94842.83
2018-06-05T17:26:59.642Z,94836.60
2018-06-05T17:29:29.785Z,94843.20
2018-06-05T17:31:59.986Z,94837.95
2018-06-05T17:34:29.670Z,94834.46
2018-06-05T17:36:59.901Z,94834.87
2018-06-05T17:39:29.985Z,94837.92
2018-06-05T17:42:00.079Z,94839.11
2018-06-05T17:44:30.099Z,94838.63
2018-06-05T17:47:00.138Z,94836.17
2018-06-05T17:49:30.191Z,94834.47
2018-06-05T17:52:00.676Z,94835.15
2018-06-05T17:54:30.866Z,94835.15
2018-06-05T17:57:00.808Z,94836.67
2018-06-05T17:59:30.982Z,94843.28
2018-06-05T18:02:00.978Z,94849.42
2018-06-05T18:04:30.958Z,94851.48
2018-06-05T18:07:00.927Z,94856.70
2018-06-05T18:09:31.823Z,94853.53
2018-06-05T18:14:44.420Z,94862.95
2018-06-05T18:17:14.385Z,94865.58
2018-06-05T18:19:44.437Z,94873.50
2018-06-05T18:22:14.408Z,94875.80
2018-06-05T18:24:44.464Z,94877.40
2018-06-05T18:27:14.471Z,94879.34
2018-06-05T18:29:44.477Z,94884.23
2018-06-05T18:32:14.434Z,94880.59
2018-06-05T18:34:44.424Z,94884.20
2018-06-05T18:37:14.501Z,94890.08
2018-06-05T18:39:44.660Z,94889.39
2018-06-05T18:42:14.644Z,94892.13
2018-06-05T18:44:44.671Z,94899.15
2018-06-05T18:47:14.674Z,94907.44
2018-06-05T18:49:45.291Z,94899.15
2018-06-05T18:52:15.385Z,94908.34
2018-06-05T18:54:45.792Z,94906.72
2018-06-05T18:57:15.880Z,94912.38
2018-06-05T18:59:45.995Z,94914.33
2018-06-05T19:02:16.171Z,94916.34
2018-06-05T19:04:46.194Z,94922.80
2018-06-05T19:07:16.126Z,94923.12
2018-06-05T19:09:46.189Z,94927.72
2018-06-05T19:12:16.240Z,94932.59
2018-06-05T19:14:46.199Z,94941.63
2018-06-05T19:17:16.425Z,94944.78
2018-06-05T19:19:46.475Z,94948.16
2018-06-05T19:22:16.581Z,94954.61
2018-06-05T19:24:46.685Z,94958.23
2018-06-05T19:27:16.927Z,94966.28
2018-06-05T19:29:47.033Z,94970.55
2018-06-05T19:32:16.672Z,94972.34
2018-06-05T19:34:46.688Z,94976.09
2018-06-05T19:37:16.906Z,94979.69
2018-06-05T19:39:46.915Z,94984.41
2018-06-05T19:42:16.942Z,94989.27
2018-06-05T19:44:47.032Z,94989.50
2018-06-05T19:47:17.149Z,94993.97
2018-06-05T19:49:47.364Z,94997.76
2018-06-05T19:52:17.440Z,95006.09
2018-06-05T19:54:47.584Z,95001.89
2018-06-05T19:57:18.169Z,95003.20
2018-06-05T19:59:49.046Z,94999.77
2018-06-05T20:02:19.294Z,95004.64
2018-06-05T20:04:49.414Z,95007.70
2018-06-05T20:07:19.490Z,95012.66
2018-06-05T20:09:49.565Z,95011.48
2018-06-05T20:12:19.845Z,95021.41
2018-06-05T20:14:49.791Z,95011.64
2018-06-05T20:17:20.098Z,95014.22
2018-06-05T20:19:50.131Z,95014.14
2018-06-05T20:22:20.125Z,95017.23
2018-06-05T20:24:53.176Z,95012.44
2018-06-05T20:27:22.793Z,95016.92
2018-06-05T20:29:52.745Z,95015.27
2018-06-05T20:32:22.991Z,95015.42
2018-06-05T20:34:53.002Z,95009.34
2018-06-05T20:37:23.354Z,95013.28
2018-06-05T20:39:53.355Z,95018.80
2018-06-05T20:42:23.706Z,95019.58
2018-06-05T20:44:53.711Z,95025.28
2018-06-05T20:47:23.811Z,95028.97
2018-06-05T20:49:53.831Z,95016.48
2018-06-05T20:52:24.423Z,95016.09
2018-06-05T20:54:54.565Z,95012.16
2018-06-05T20:57:26.203Z,95011.46
2018-06-05T20:59:56.486Z,94968.38
2018-06-05T21:02:26.661Z,95020.76
2018-06-05T21:04:57.142Z,95018.81
2018-06-05T21:07:27.365Z,95022.52
2018-06-05T21:09:57.464Z,95025.05
2018-06-05T21:12:27.562Z,95020.02
2018-06-05T21:14:57.529Z,95019.47
2018-06-05T21:17:27.691Z,95020.56
2018-06-05T21:19:57.809Z,95025.43
2018-06-05T21:22:28.095Z,95024.55
2018-06-05T21:24:58.090Z,95023.67
2018-06-05T21:27:28.327Z,95023.49
2018-06-05T21:29:58.340Z,95029.64
2018-06-05T21:32:28.462Z,95019.80
2018-06-05T21:34:58.431Z,95019.39
2018-06-05T21:37:28.654Z,95018.29
2018-06-05T21:39:58.752Z,95022.98
2018-06-05T21:42:29.081Z,95022.02
2018-06-05T21:44:59.054Z,95030.22
2018-06-05T21:47:29.422Z,95029.16
2018-06-05T21:49:59.395Z,95018.48
2018-06-05T21:52:29.457Z,95026.20
2018-06-05T21:54:59.515Z,95029.53
2018-06-05T21:57:29.626Z,95024.49
2018-06-05T21:59:59.590Z,95032.89
2018-06-05T22:02:29.167Z,95032.21
2018-06-05T22:04:59.168Z,95034.44
2018-06-05T22:07:29.187Z,95035.92
2018-06-05T22:09:59.163Z,95036.41
2018-06-05T22:12:28.842Z,95027.23
2018-06-05T22:14:59.448Z,95032.05
2018-06-05T22:17:29.531Z,95031.69
2018-06-05T22:19:59.524Z,95034.42
2018-06-05T22:22:29.585Z,95033.70
2018-06-05T22:24:59.562Z,95034.67
2018-06-05T22:27:29.617Z,95031.92
2018-06-05T22:29:59.594Z,95030.13
2018-06-05T22:32:29.638Z,95030.98
2018-06-05T22:34:59.633Z,95034.38
2018-06-05T22:37:29.640Z,95031.72
2018-06-05T22:39:59.630Z,95027.17
2018-06-05T22:42:29.686Z,95028.77
2018-06-05T22:44:59.659Z,95034.32
2018-06-05T22:47:29.626Z,95032.70
2018-06-05T22:49:59.615Z,95024.41
2018-06-05T22:52:29.668Z,95029.08
2018-06-05T22:54:59.674Z,95027.30
2018-06-05T22:57:29.767Z,95011.53
2018-06-05T22:59:59.770Z,95023.72
2018-06-05T23:02:30.005Z,95014.70
2018-06-05T23:04:59.608Z,95033.17
2018-06-05T23:07:29.670Z,95031.93
2018-06-05T23:09:59.666Z,95029.97
2018-06-05T23:12:29.295Z,95011.72
2018-06-05T23:14:59.292Z,95028.66
2018-06-05T23:17:29.374Z,95029.19
2018-06-05T23:19:59.373Z,95026.63
2018-06-05T23:22:29.486Z,95024.16
2018-06-05T23:24:59.519Z,95026.38
2018-06-05T23:27:30.207Z,95027.16
2018-06-05T23:30:00.204Z,95023.09
2018-06-05T23:32:30.324Z,95017.95
2018-06-05T23:35:00.327Z,95028.81
2018-06-05T23:37:30.403Z,95022.20
2018-06-05T23:40:00.418Z,95017.52
2018-06-05T23:42:30.127Z,95022.81
2018-06-05T23:45:00.088Z,95024.58
2018-06-05T23:47:30.146Z,95020.84
2018-06-05T23:50:00.143Z,95016.02
2018-06-05T23:52:30.210Z,95012.23
2018-06-05T23:55:00.224Z,95010.24
2018-06-05T23:57:30.270Z,95013.80
2018-06-05T23:59:59.869Z,95012.92
